Time;durP1;ratioP1;P1;durP2;ratioP2;P2;SDS_P1;SDS_P2;PMS_P1;PMS_P2;Temp;Humidity;BMP_temperature;BMP_pressure;BME280_temperature;BME280_humidity;BME280_pressure;Samples;Min_cycle;Max_cycle;Signal;HPM_P1;HPM_P2
2023/07/06 00:01:58;;;;;;;1.37;0.60;;;21.40;61.50;;;;;;2292422;55;20940;-65
2023/07/06 00:04:24;;;;;;;1.55;0.70;;;21.40;61.50;;;;;;2509675;54;21538;-66
2023/07/06 00:06:51;;;;;;;2.10;0.60;;;21.40;61.60;;;;;;2504720;54;21380;-65
2023/07/06 00:09:18;;;;;;;3.42;0.80;;;21.40;61.60;;;;;;2500894;54;20996;-65
2023/07/06 00:11:47;;;;;;;1.65;0.70;;;21.40;61.70;;;;;;2526792;54;21708;-65
2023/07/06 00:14:14;;;;;;;2.20;0.70;;;21.30;61.60;;;;;;2292642;55;21088;-65
2023/07/06 00:16:45;;;;;;;2.55;0.90;;;21.30;61.70;;;;;;2292069;55;20956;-68
2023/07/06 00:19:12;;;;;;;1.52;0.60;;;21.30;61.50;;;;;;2524742;54;21753;-65
2023/07/06 00:21:38;;;;;;;2.45;0.90;;;21.20;61.80;;;;;;2504914;54;20981;-69
2023/07/06 00:24:07;;;;;;;3.60;0.88;;;21.20;62.00;;;;;;2527471;54;20932;-65
2023/07/06 00:26:33;;;;;;;1.62;0.62;;;21.20;62.10;;;;;;2526558;54;21027;-65
2023/07/06 00:29:00;;;;;;;2.22;0.60;;;21.20;62.10;;;;;;2291844;55;20907;-67
2023/07/06 00:31:40;;;;;;;2.05;0.80;;;21.10;62.10;;;;;;2292385;55;20944;-65
2023/07/06 00:34:10;;;;;;;2.87;1.00;;;21.10;62.10;;;;;;2528561;54;21000;-66
2023/07/06 00:36:40;;;;;;;2.22;0.90;;;21.10;62.10;;;;;;2292948;55;20944;-66
2023/07/06 00:39:10;;;;;;;1.48;0.70;;;21.00;61.80;;;;;;2291909;55;20984;-66
2023/07/06 00:41:39;;;;;;;1.85;0.70;;;21.00;62.10;;;;;;2293657;55;21666;-68
2023/07/06 00:44:48;;;;;;;2.08;0.88;;;21.00;62.20;;;;;;2294987;55;20956;-65
2023/07/06 00:47:20;;;;;;;1.67;0.70;;;21.00;60.50;;;;;;2529121;54;20901;-67
2023/07/06 00:49:47;;;;;;;2.20;0.70;;;20.90;62.20;;;;;;2529063;54;20901;-65
2023/07/06 00:52:16;;;;;;;1.48;0.60;;;20.90;62.30;;;;;;2528625;54;20912;-67
2023/07/06 00:54:46;;;;;;;1.75;0.70;;;20.90;62.30;;;;;;2292945;55;20975;-68
2023/07/06 00:57:13;;;;;;;2.45;0.80;;;20.80;62.30;;;;;;2292820;55;20980;-65
2023/07/06 00:59:40;;;;;;;2.25;0.75;;;20.80;62.30;;;;;;2292927;55;21741;-65
2023/07/06 01:02:09;;;;;;;2.42;0.85;;;20.70;62.20;;;;;;2525927;54;20944;-65
2023/07/06 01:04:36;;;;;;;2.15;0.75;;;20.70;62.20;;;;;;2527495;54;20968;-66
2023/07/06 01:07:04;;;;;;;1.35;0.60;;;20.60;62.10;;;;;;2528402;54;20968;-66
2023/07/06 01:09:31;;;;;;;1.35;0.60;;;20.60;62.10;;;;;;2282411;55;21023;-66
2023/07/06 01:11:57;;;;;;;2.28;0.80;;;20.60;62.20;;;;;;2291510;55;20968;-65
2023/07/06 01:14:27;;;;;;;2.17;0.93;;;20.50;62.00;;;;;;2501587;54;20939;-65
2023/07/06 01:17:30;;;;;;;1.98;0.80;;;20.40;61.90;;;;;;2292664;55;20920;-65
2023/07/06 01:20:14;;;;;;;1.67;0.70;;;20.40;60.40;;;;;;2527129;54;22349;-66
2023/07/06 01:24:52;;;;;;;2.35;1.00;;;20.30;61.10;;;;;;2526503;54;20993;-65
2023/07/06 01:27:42;;;;;;;1.50;0.68;;;20.20;60.70;;;;;;2509927;54;20945;-65
2023/07/06 01:30:30;;;;;;;1.70;0.55;;;20.20;61.00;;;;;;2524365;54;20936;-69
2023/07/06 01:33:00;;;;;;;1.90;0.62;;;20.10;61.30;;;;;;2528057;54;20968;-65
2023/07/06 01:35:42;;;;;;;1.80;0.70;;;20.00;62.00;;;;;;2292411;55;20964;-65
2023/07/06 01:38:11;;;;;;;2.05;0.80;;;20.00;62.20;;;;;;2292486;55;20999;-67
2023/07/06 01:40:38;;;;;;;1.80;0.70;;;19.90;62.10;;;;;;2527582;54;21040;-69
2023/07/06 01:43:05;;;;;;;1.50;0.62;;;19.90;62.40;;;;;;2292439;55;21469;-67
2023/07/06 01:45:33;;;;;;;1.65;0.73;;;19.80;62.40;;;;;;2527981;54;20924;-66
2023/07/06 01:48:05;;;;;;;1.52;0.60;;;19.80;62.50;;;;;;2527797;54;20928;-66
2023/07/06 01:57:24;;;;;;;1.90;0.73;;;19.70;62.20;;;;;;2293291;55;20953;-65
2023/07/06 01:59:51;;;;;;;1.45;0.60;;;19.70;61.40;;;;;;2291992;56;20916;-65
2023/07/06 02:02:19;;;;;;;3.42;0.62;;;19.60;63.20;;;;;;2528145;54;21511;-65
2023/07/06 02:04:47;;;;;;;1.87;0.65;;;19.60;63.30;;;;;;2527416;54;20920;-69
2023/07/06 02:07:13;;;;;;;1.50;0.68;;;19.50;63.20;;;;;;2292708;55;21115;-65
2023/07/06 02:09:47;;;;;;;1.80;0.70;;;19.50;63.20;;;;;;2273468;55;20956;-65
2023/07/06 02:12:13;;;;;;;1.98;0.80;;;19.50;62.80;;;;;;2527847;54;21618;-69
2023/07/06 02:14:42;;;;;;;1.75;0.70;;;19.40;63.20;;;;;;2292161;55;21443;-66
2023/07/06 02:17:09;;;;;;;1.80;0.70;;;19.40;63.30;;;;;;2527974;54;20941;-67
2023/07/06 02:19:36;;;;;;;2.58;0.88;;;19.40;63.30;;;;;;2292533;55;21049;-68
2023/07/06 02:22:05;;;;;;;1.85;0.60;;;19.30;63.30;;;;;;2292559;55;20936;-68
2023/07/06 02:24:32;;;;;;;2.33;0.90;;;19.30;63.30;;;;;;2500900;54;21041;-65
2023/07/06 02:26:58;;;;;;;1.75;0.70;;;19.20;63.20;;;;;;2522381;54;20985;-65
2023/07/06 02:29:25;;;;;;;1.75;0.77;;;19.20;63.40;;;;;;2507681;54;20972;-66
2023/07/06 02:31:51;;;;;;;2.05;0.70;;;19.20;63.50;;;;;;2527483;54;21816;-67
2023/07/06 02:34:26;;;;;;;2.10;0.75;;;19.10;63.40;;;;;;2527923;54;21465;-65
2023/07/06 02:36:56;;;;;;;3.92;0.82;;;19.10;63.40;;;;;;2292259;55;20896;-69
2023/07/06 02:39:27;;;;;;;1.92;0.70;;;19.10;63.40;;;;;;2478085;55;21141;-65
2023/07/06 02:41:54;;;;;;;3.22;1.00;;;19.10;63.50;;;;;;2527047;54;20995;-65
2023/07/06 02:44:22;;;;;;;2.00;0.80;;;19.00;63.30;;;;;;2528124;54;20908;-65
2023/07/06 02:46:48;;;;;;;2.20;0.93;;;19.00;63.30;;;;;;2527149;54;20975;-64
2023/07/06 02:49:16;;;;;;;3.47;0.88;;;18.90;63.10;;;;;;2292996;55;20924;-69
2023/07/06 02:51:42;;;;;;;1.77;0.70;;;18.90;63.10;;;;;;2292453;55;20964;-65
2023/07/06 02:54:13;;;;;;;3.25;1.00;;;18.90;63.10;;;;;;2292983;56;21670;-65
2023/07/06 02:56:41;;;;;;;3.15;0.95;;;18.80;63.10;;;;;;2291836;55;20980;-65
2023/07/06 02:59:09;;;;;;;2.17;0.90;;;18.70;63.00;;;;;;2528070;54;20976;-65
2023/07/06 03:01:37;;;;;;;2.45;0.80;;;18.70;63.00;;;;;;2292367;55;20917;-64
2023/07/06 03:04:09;;;;;;;1.70;0.70;;;18.60;63.00;;;;;;2292578;56;20928;-67
2023/07/06 03:06:39;;;;;;;1.62;0.68;;;18.60;63.10;;;;;;2527927;54;20905;-66
2023/07/06 03:09:09;;;;;;;2.25;0.85;;;18.50;63.10;;;;;;2292152;55;21352;-65
2023/07/06 03:11:36;;;;;;;1.95;0.80;;;18.50;63.20;;;;;;2292717;55;21016;-66
2023/07/06 03:14:03;;;;;;;2.83;0.85;;;18.40;63.10;;;;;;2288171;55;20976;-65
2023/07/06 03:16:39;;;;;;;4.30;0.80;;;18.40;63.20;;;;;;2292978;55;20984;-68
2023/07/06 03:19:09;;;;;;;2.30;0.90;;;18.30;63.10;;;;;;2528139;54;20940;-65
2023/07/06 03:21:38;;;;;;;1.33;0.65;;;18.30;63.10;;;;;;2292445;55;20973;-67
2023/07/06 03:24:08;;;;;;;1.65;0.70;;;18.20;63.40;;;;;;2292317;55;20916;-67
2023/07/06 03:26:36;;;;;;;3.08;0.80;;;18.20;63.50;;;;;;2293024;55;20928;-66
2023/07/06 03:29:06;;;;;;;1.85;0.80;;;18.20;63.60;;;;;;2292854;55;20981;-69
2023/07/06 03:31:33;;;;;;;2.35;0.90;;;18.10;63.40;;;;;;2528040;54;20953;-67
2023/07/06 03:34:06;;;;;;;2.00;0.80;;;18.10;63.60;;;;;;2527653;54;21051;-69
2023/07/06 03:36:34;;;;;;;2.40;0.85;;;18.10;63.50;;;;;;2527514;54;21337;-68
2023/07/06 03:39:02;;;;;;;2.00;0.88;;;18.10;63.80;;;;;;2526999;54;20940;-70
2023/07/06 03:41:32;;;;;;;2.75;0.85;;;18.00;63.80;;;;;;2521840;54;21052;-67
2023/07/06 03:43:59;;;;;;;1.95;0.85;;;18.00;63.80;;;;;;2500866;54;20925;-65
2023/07/06 03:46:36;;;;;;;2.53;0.95;;;17.90;63.80;;;;;;2287907;55;21026;-66
2023/07/06 03:49:03;;;;;;;3.00;0.88;;;17.90;63.30;;;;;;2292765;55;20929;-65
2023/07/06 03:51:31;;;;;;;1.75;0.70;;;17.90;63.80;;;;;;2528019;54;20964;-65
2023/07/06 03:53:57;;;;;;;1.90;0.77;;;17.90;63.90;;;;;;2499763;54;20948;-65
2023/07/06 03:56:27;;;;;;;2.42;0.90;;;17.80;64.00;;;;;;2291887;55;20912;-65
2023/07/06 03:59:00;;;;;;;2.45;0.98;;;17.80;64.10;;;;;;2527164;54;20949;-63
2023/07/06 04:01:39;;;;;;;1.27;0.60;;;17.80;64.10;;;;;;2240597;55;3337980;-67
2023/07/06 04:04:08;;;;;;;2.05;0.77;;;17.80;64.10;;;;;;2527644;54;21781;-68
2023/07/06 04:06:40;;;;;;;2.20;0.88;;;17.70;64.00;;;;;;2507493;54;20952;-68
2023/07/06 04:09:08;;;;;;;1.65;0.73;;;17.70;64.00;;;;;;2522932;54;20908;-67
2023/07/06 04:11:36;;;;;;;2.03;0.95;;;17.70;64.10;;;;;;2292920;55;20999;-67
2023/07/06 04:14:03;;;;;;;1.85;0.80;;;17.60;64.00;;;;;;2292911;55;20922;-67
2023/07/06 04:16:31;;;;;;;1.87;0.73;;;17.60;64.10;;;;;;2528407;54;20912;-67
2023/07/06 04:18:57;;;;;;;2.10;1.00;;;17.60;64.10;;;;;;2527517;54;20888;-67
2023/07/06 04:21:24;;;;;;;2.87;0.90;;;17.60;64.20;;;;;;2292797;56;21027;-67
2023/07/06 04:23:51;;;;;;;2.42;0.85;;;17.50;64.20;;;;;;2291850;56;20992;-68
2023/07/06 04:26:19;;;;;;;2.03;0.73;;;17.50;64.20;;;;;;2527475;54;20920;-67
2023/07/06 04:28:47;;;;;;;2.08;0.70;;;17.50;64.20;;;;;;2527648;54;20964;-70
2023/07/06 04:31:16;;;;;;;1.87;0.80;;;17.40;64.30;;;;;;2292793;55;21025;-67
2023/07/06 04:33:49;;;;;;;1.83;0.82;;;17.40;64.40;;;;;;2292293;55;20904;-69
2023/07/06 04:36:15;;;;;;;;;;;17.40;64.60;;;;;;2531883;54;21749;-67
2023/07/06 04:38:43;;;;;;;1.67;0.65;;;17.40;63.30;;;;;;2526913;54;20049;-69
2023/07/06 04:41:12;;;;;;;1.83;0.73;;;17.40;64.70;;;;;;2292453;55;21007;-66
2023/07/06 04:43:38;;;;;;;3.33;0.82;;;17.40;64.90;;;;;;2528044;54;20968;-67
2023/07/06 04:46:04;;;;;;;1.77;0.80;;;17.40;65.10;;;;;;2527497;54;21386;-69
2023/07/06 04:48:34;;;;;;;1.87;0.80;;;17.40;65.20;;;;;;2293133;55;20984;-67
2023/07/06 04:51:01;;;;;;;1.62;0.75;;;17.40;65.40;;;;;;2527515;54;21044;-67
2023/07/06 04:53:28;;;;;;;1.75;0.80;;;17.40;65.40;;;;;;2528371;54;20913;-71
2023/07/06 04:55:56;;;;;;;1.90;0.82;;;17.50;65.60;;;;;;2292234;55;20972;-67
2023/07/06 04:58:23;;;;;;;1.80;0.80;;;17.50;65.70;;;;;;2527868;54;20996;-70
2023/07/06 05:00:50;;;;;;;2.70;0.93;;;17.50;65.70;;;;;;2527511;54;20968;-71
2023/07/06 05:03:16;;;;;;;3.42;1.00;;;17.50;65.70;;;;;;2527801;54;21433;-67
2023/07/06 05:05:45;;;;;;;1.90;0.80;;;17.60;65.80;;;;;;2291709;55;20936;-66
2023/07/06 05:08:15;;;;;;;2.45;1.00;;;17.60;65.90;;;;;;2292874;55;20908;-70
2023/07/06 05:10:47;;;;;;;2.30;1.05;;;17.60;65.90;;;;;;2293861;55;21011;-67
2023/07/06 05:13:14;;;;;;;2.53;0.90;;;17.60;65.80;;;;;;2504209;54;20960;-68
2023/07/06 05:15:40;;;;;;;2.67;0.90;;;17.70;66.10;;;;;;2292537;55;20919;-68
2023/07/06 05:18:06;;;;;;;2.25;0.82;;;17.70;66.10;;;;;;2293127;55;20971;-67
2023/07/06 05:20:33;;;;;;;3.15;1.15;;;17.80;66.30;;;;;;2528404;54;20986;-69
2023/07/06 05:23:01;;;;;;;3.30;1.17;;;17.80;66.30;;;;;;2526944;54;21283;-67
2023/07/06 05:25:28;;;;;;;2.47;1.08;;;17.80;66.30;;;;;;2292541;55;21744;-67
2023/07/06 05:27:54;;;;;;;1.73;0.80;;;17.90;66.40;;;;;;2527194;54;20920;-71
2023/07/06 05:30:21;;;;;;;2.50;0.90;;;17.90;66.50;;;;;;2528031;54;20913;-69
2023/07/06 05:32:49;;;;;;;3.65;0.93;;;17.90;66.60;;;;;;2527674;54;21032;-69
2023/07/06 05:35:16;;;;;;;2.35;1.02;;;18.00;66.70;;;;;;2527302;54;20928;-67
2023/07/06 05:37:43;;;;;;;2.75;1.10;;;18.00;66.80;;;;;;2527464;54;20957;-71
2023/07/06 05:40:18;;;;;;;1.80;0.80;;;18.10;66.90;;;;;;2528049;54;20952;-68
2023/07/06 05:42:45;;;;;;;2.80;1.08;;;18.10;66.90;;;;;;2527840;54;20927;-67
2023/07/06 05:45:12;;;;;;;2.60;0.90;;;18.20;66.90;;;;;;2293894;55;20900;-65
2023/07/06 05:47:38;;;;;;;3.30;1.08;;;18.30;67.00;;;;;;2292758;55;20960;-68
2023/07/06 05:50:06;;;;;;;2.55;0.93;;;18.30;67.00;;;;;;2292660;55;21819;-65
2023/07/06 05:52:33;;;;;;;2.53;0.98;;;18.40;67.10;;;;;;2502919;54;21906;-68
2023/07/06 05:55:00;;;;;;;3.35;1.30;;;18.40;67.10;;;;;;2525851;54;21523;-69
2023/07/06 05:57:27;;;;;;;2.90;1.30;;;18.50;67.10;;;;;;2527845;54;21728;-65
2023/07/06 05:59:56;;;;;;;2.75;1.33;;;18.50;67.10;;;;;;2527318;54;20901;-69
2023/07/06 06:02:23;;;;;;;2.20;1.10;;;18.60;67.10;;;;;;2292760;55;20968;-68
2023/07/06 06:04:51;;;;;;;6.03;1.70;;;18.70;67.20;;;;;;2521963;54;21437;-66
2023/07/06 06:07:19;;;;;;;3.25;1.40;;;18.70;67.10;;;;;;2293249;55;21774;-66
2023/07/06 06:09:47;;;;;;;4.03;1.20;;;18.80;67.30;;;;;;2292580;55;21775;-65
2023/07/06 06:12:20;;;;;;;3.17;1.37;;;18.80;67.30;;;;;;2293056;55;21843;-65
2023/07/06 06:14:50;;;;;;;2.80;1.08;;;18.90;67.40;;;;;;2527796;54;21417;-65
2023/07/06 06:17:17;;;;;;;1.62;0.80;;;18.90;67.20;;;;;;2293142;55;21536;-66
2023/07/06 06:19:45;;;;;;;3.10;1.27;;;19.00;67.40;;;;;;2527414;54;21422;-69
2023/07/06 06:22:15;;;;;;;3.28;1.40;;;19.00;67.40;;;;;;2528072;54;20997;-66
2023/07/06 06:24:42;;;;;;;2.78;1.05;;;19.20;67.50;;;;;;2293351;55;20960;-65
2023/07/06 06:27:10;;;;;;;2.72;1.00;;;19.20;67.60;;;;;;2528241;54;21020;-65
2023/07/06 06:29:38;;;;;;;3.40;1.30;;;19.30;67.60;;;;;;2293425;55;20936;-69
2023/07/06 06:32:08;;;;;;;2.62;1.25;;;19.30;67.60;;;;;;2527984;54;20960;-66
2023/07/06 06:34:36;;;;;;;2.42;1.00;;;19.40;67.70;;;;;;2293549;55;20925;-65
2023/07/06 06:37:04;;;;;;;5.35;1.40;;;19.40;67.70;;;;;;2527915;54;21016;-69
2023/07/06 06:39:31;;;;;;;3.47;1.25;;;19.50;67.80;;;;;;2293130;55;21749;-66
2023/07/06 06:42:00;;;;;;;4.15;1.33;;;19.50;67.80;;;;;;2292129;55;20928;-68
2023/07/06 06:44:28;;;;;;;2.85;1.10;;;19.60;68.00;;;;;;2527776;54;21478;-66
2023/07/06 06:46:58;;;;;;;2.80;1.00;;;19.70;68.00;;;;;;2292057;55;20920;-65
2023/07/06 06:49:25;;;;;;;3.28;1.15;;;19.80;67.90;;;;;;2528389;54;20976;-68
2023/07/06 06:51:52;;;;;;;3.33;1.27;;;19.90;67.80;;;;;;2525405;54;20916;-66
2023/07/06 06:54:20;;;;;;;3.40;1.35;;;19.90;67.70;;;;;;2503686;54;21012;-66
2023/07/06 06:56:49;;;;;;;2.20;1.00;;;20.00;67.70;;;;;;2528068;54;21666;-68
2023/07/06 06:59:15;;;;;;;3.08;1.27;;;20.10;67.80;;;;;;2521419;54;21007;-67
2023/07/06 07:01:45;;;;;;;2.67;1.20;;;20.20;67.80;;;;;;2292280;55;20976;-70
2023/07/06 07:04:12;;;;;;;3.47;1.55;;;20.20;67.50;;;;;;2527834;54;21028;-67
2023/07/06 07:06:39;;;;;;;3.33;1.48;;;20.30;67.70;;;;;;2292802;55;20984;-67
2023/07/06 07:09:10;;;;;;;2.83;1.10;;;20.40;67.70;;;;;;2280891;55;21080;-68
2023/07/06 07:11:37;;;;;;;4.07;1.25;;;20.50;67.80;;;;;;2520479;54;20941;-66
2023/07/06 07:14:03;;;;;;;2.78;1.20;;;20.50;67.80;;;;;;2285547;55;21105;-67
2023/07/06 07:16:30;;;;;;;3.37;1.30;;;20.60;67.90;;;;;;2280480;55;20948;-66
2023/07/06 07:18:59;;;;;;;2.95;1.27;;;20.70;67.80;;;;;;2292153;55;21441;-65
2023/07/06 07:21:25;;;;;;;3.00;1.15;;;20.70;67.80;;;;;;2528118;54;21784;-70
2023/07/06 07:23:52;;;;;;;2.45;1.10;;;20.80;67.90;;;;;;2501065;54;20969;-70
2023/07/06 07:26:21;;;;;;;2.90;1.30;;;20.90;67.90;;;;;;2527679;54;20948;-67
2023/07/06 07:28:48;;;;;;;3.00;1.37;;;21.00;67.80;;;;;;2291981;55;20916;-66
2023/07/06 07:31:15;;;;;;;2.47;1.00;;;21.00;67.90;;;;;;2291415;56;21015;-67
2023/07/06 07:33:42;;;;;;;2.67;1.05;;;21.10;67.70;;;;;;2292398;55;20917;-67
2023/07/06 07:36:32;;;;;;;3.22;1.33;;;21.20;67.70;;;;;;2285675;55;21437;-68
2023/07/06 07:38:59;;;;;;;2.55;1.20;;;21.30;66.30;;;;;;2284681;55;20960;-69
2023/07/06 07:41:28;;;;;;;2.35;1.08;;;21.40;67.60;;;;;;2527886;54;20932;-67
2023/07/06 07:43:54;;;;;;;4.20;1.40;;;21.50;67.40;;;;;;2527642;54;20920;-69
2023/07/06 07:46:24;;;;;;;3.15;1.33;;;21.60;67.30;;;;;;2292810;55;20944;-66
2023/07/06 07:48:51;;;;;;;2.97;1.20;;;21.60;67.10;;;;;;2505925;54;21005;-67
2023/07/06 07:51:20;;;;;;;2.95;1.10;;;21.70;67.00;;;;;;2288491;55;20944;-67
2023/07/06 07:53:46;;;;;;;2.37;0.93;;;21.80;66.80;;;;;;2528452;54;20912;-68
2023/07/06 07:56:15;;;;;;;3.35;1.20;;;21.90;66.90;;;;;;2527794;54;21000;-66
2023/07/06 07:58:41;;;;;;;3.30;1.15;;;22.00;66.80;;;;;;2527703;54;20949;-66
2023/07/06 08:01:10;;;;;;;2.83;1.12;;;22.10;66.80;;;;;;2527889;54;20980;-66
2023/07/06 08:03:36;;;;;;;3.45;1.27;;;22.20;66.60;;;;;;2292847;55;20897;-67
2023/07/06 08:06:06;;;;;;;2.70;1.20;;;22.30;66.60;;;;;;2292872;55;20928;-66
2023/07/06 08:08:37;;;;;;;2.92;1.20;;;22.30;66.40;;;;;;2292952;56;20920;-66
2023/07/06 08:11:26;;;;;;;3.72;1.40;;;22.40;66.50;;;;;;2521798;54;21468;-69
2023/07/06 08:13:53;;;;;;;2.87;1.30;;;22.50;65.90;;;;;;2293265;55;20936;-66
2023/07/06 08:16:20;;;;;;;2.37;1.00;;;22.60;66.30;;;;;;2293500;55;21079;-67
2023/07/06 08:18:46;;;;;;;3.05;1.20;;;22.70;66.20;;;;;;2292109;55;21472;-66
2023/07/06 08:21:13;;;;;;;2.75;1.15;;;22.70;66.00;;;;;;2293019;55;21291;-66
2023/07/06 08:23:48;;;;;;;3.03;1.10;;;22.80;66.00;;;;;;2523781;54;21544;-67
2023/07/06 08:26:15;;;;;;;1.90;0.90;;;22.90;65.10;;;;;;2293546;55;21016;-67
2023/07/06 08:28:44;;;;;;;2.60;0.98;;;23.00;66.00;;;;;;2529571;54;20956;-69
2023/07/06 08:31:12;;;;;;;2.87;1.20;;;23.10;65.80;;;;;;2528316;54;20977;-67
2023/07/06 08:33:38;;;;;;;5.75;1.10;;;23.20;65.70;;;;;;2504135;54;20985;-66
2023/07/06 08:36:06;;;;;;;2.35;1.00;;;23.20;65.50;;;;;;2525105;54;20989;-67
2023/07/06 08:38:32;;;;;;;2.75;0.90;;;23.30;65.30;;;;;;2525255;54;21481;-69
2023/07/06 08:41:05;;;;;;;1.90;0.77;;;23.40;65.20;;;;;;2283259;55;20980;-66
2023/07/06 08:43:31;;;;;;;3.00;1.10;;;23.50;64.80;;;;;;2288809;55;20968;-66
2023/07/06 08:46:02;;;;;;;1.67;0.73;;;23.50;64.90;;;;;;2292486;55;20964;-69
2023/07/06 08:48:31;;;;;;;5.57;1.10;;;23.60;64.60;;;;;;2528861;54;20928;-67
2023/07/06 08:51:24;;;;;;;2.50;0.90;;;23.60;64.70;;;;;;2527403;54;20952;-67
2023/07/06 08:54:02;;;;;;;2.60;0.90;;;23.70;62.50;;;;;;2292420;55;20947;-66
2023/07/06 08:56:33;;;;;;;2.30;0.85;;;23.80;63.00;;;;;;2293048;55;20932;-68
2023/07/06 08:59:00;;;;;;;1.90;0.80;;;23.80;64.30;;;;;;2527735;54;20956;-69
2023/07/06 09:02:22;;;;;;;3.30;0.80;;;23.90;64.30;;;;;;2502457;54;20993;-66
2023/07/06 09:04:53;;;;;;;2.17;1.00;;;24.00;62.20;;;;;;2505953;54;21700;-68
2023/07/06 09:07:42;;;;;;;2.35;1.02;;;24.10;64.60;;;;;;2522840;54;20963;-70
2023/07/06 09:10:29;;;;;;;2.28;1.00;;;24.20;62.50;;;;;;2527850;54;20960;-71
2023/07/06 09:13:03;;;;;;;3.97;1.10;;;24.20;62.80;;;;;;2292302;55;20976;-69
2023/07/06 09:15:33;;;;;;;1.65;0.80;;;24.30;64.60;;;;;;2525265;54;20921;-70
2023/07/06 09:18:02;;;;;;;2.92;1.10;;;24.40;64.60;;;;;;2292932;55;20916;-70
2023/07/06 09:20:29;;;;;;;2.15;0.85;;;24.40;64.20;;;;;;2528402;54;21731;-71
2023/07/06 09:22:56;;;;;;;2.78;1.10;;;24.50;64.10;;;;;;2527491;54;20980;-67
2023/07/06 09:25:37;;;;;;;2.95;1.20;;;24.60;64.10;;;;;;2291934;55;20905;-67
2023/07/06 09:28:23;;;;;;;2.33;1.05;;;24.60;61.90;;;;;;2291221;55;20955;-66
2023/07/06 09:30:50;;;;;;;1.58;0.77;;;24.70;63.30;;;;;;2292348;55;20924;-69
2023/07/06 09:33:24;;;;;;;3.35;0.88;;;24.80;63.50;;;;;;2292255;56;20909;-65
2023/07/06 09:35:52;;;;;;;3.33;1.30;;;24.80;62.20;;;;;;2527455;54;20936;-69
2023/07/06 09:38:19;;;;;;;2.33;0.95;;;24.90;63.00;;;;;;2514406;54;21489;-71
2023/07/06 09:40:47;;;;;;;2.60;1.12;;;25.00;63.20;;;;;;2281449;55;20961;-68
2023/07/06 09:43:24;;;;;;;2.42;1.10;;;25.00;63.30;;;;;;2527529;54;21904;-68
2023/07/06 09:45:54;;;;;;;2.60;1.15;;;25.10;62.10;;;;;;2526806;54;20987;-70
2023/07/06 09:48:32;;;;;;;2.67;1.20;;;25.20;63.10;;;;;;2292593;56;20912;-69
2023/07/06 09:51:13;;;;;;;2.78;0.98;;;25.20;61.20;;;;;;2292074;55;20916;-72
2023/07/06 09:53:53;;;;;;;2.60;1.17;;;25.30;61.80;;;;;;2292795;55;21007;-69
2023/07/06 09:56:22;;;;;;;3.47;1.20;;;25.30;61.10;;;;;;2482589;54;20983;-69
2023/07/06 09:58:51;;;;;;;2.30;0.95;;;25.40;62.40;;;;;;2501409;54;20893;-70
2023/07/06 10:01:43;;;;;;;2.50;1.05;;;25.50;62.50;;;;;;2291021;55;20996;-69
2023/07/06 10:05:53;;;;;;;3.30;1.23;;;25.40;61.10;;;;;;2527820;54;21790;-68
2023/07/06 10:08:28;;;;;;;3.00;1.00;;;25.60;60.10;;;;;;2528013;54;20916;-69
2023/07/06 10:11:12;;;;;;;3.22;0.98;;;25.70;61.70;;;;;;2527915;54;20956;-69
2023/07/06 10:14:04;;;;;;;2.05;0.85;;;25.70;61.50;;;;;;2527892;54;20937;-69
2023/07/06 10:23:11;;;;;;;2.75;1.20;;;25.80;59.20;;;;;;2523685;54;20961;-69
2023/07/06 10:27:15;;;;;;;1.60;0.70;;;25.80;59.30;;;;;;2292159;55;20928;-68
2023/07/06 10:29:47;;;;;;;1.92;0.82;;;26.00;61.60;;;;;;2292585;55;21035;-67
2023/07/06 10:32:20;;;;;;;2.70;1.02;;;26.00;61.60;;;;;;2527509;54;20978;-68
2023/07/06 10:35:34;;;;;;;2.90;1.10;;;26.10;61.10;;;;;;2292009;55;20892;-69
2023/07/06 10:38:01;;;;;;;2.67;1.00;;;26.10;59.60;;;;;;2292595;56;20924;-68
2023/07/06 10:40:28;;;;;;;5.72;1.40;;;26.10;61.20;;;;;;2528539;54;22777;-67
2023/07/06 10:43:40;;;;;;;3.67;1.35;;;26.10;60.80;;;;;;2526775;54;20921;-67
2023/07/06 10:46:42;;;;;;;3.78;1.17;;;26.20;58.80;;;;;;2505612;54;20965;-66
2023/07/06 10:49:19;;;;;;;2.72;1.17;;;26.30;59.20;;;;;;2528082;54;20964;-67
2023/07/06 10:51:52;;;;;;;2.95;1.10;;;26.30;60.00;;;;;;2527954;54;21038;-67
2023/07/06 10:54:25;;;;;;;3.05;1.00;;;26.30;60.00;;;;;;2292191;56;21443;-69
2023/07/06 10:57:11;;;;;;;2.67;1.20;;;26.40;60.10;;;;;;2528016;54;21544;-69
2023/07/06 10:59:44;;;;;;;3.47;1.30;;;26.40;58.90;;;;;;2527686;54;21403;-68
2023/07/06 11:02:33;;;;;;;3.00;1.20;;;26.50;59.70;;;;;;2275906;55;21005;-67
2023/07/06 11:05:28;;;;;;;3.50;1.10;;;26.60;58.30;;;;;;2527512;54;20904;-66
2023/07/06 11:07:57;;;;;;;2.70;1.20;;;26.60;58.50;;;;;;2527714;54;20929;-68
2023/07/06 11:10:38;;;;;;;3.30;1.10;;;26.70;59.90;;;;;;2527856;54;20952;-67
2023/07/06 11:13:16;;;;;;;2.80;1.20;;;26.70;59.00;;;;;;2527791;54;20988;-67
2023/07/06 11:15:56;;;;;;;2.67;1.30;;;26.80;57.80;;;;;;2292513;55;21000;-66
2023/07/06 11:18:40;;;;;;;3.20;1.00;;;26.80;57.20;;;;;;2292393;55;21004;-68
2023/07/06 11:21:36;;;;;;;2.53;1.00;;;26.90;57.40;;;;;;2527716;54;20920;-69
2023/07/06 11:24:07;;;;;;;3.17;1.25;;;26.90;56.90;;;;;;2291866;55;20947;-67
2023/07/06 11:26:48;;;;;;;4.10;1.30;;;26.90;59.00;;;;;;2293103;55;21000;-67
2023/07/06 11:29:18;;;;;;;2.20;0.90;;;27.00;58.70;;;;;;2292402;56;20948;-66
2023/07/06 11:32:11;;;;;;;2.42;1.10;;;27.00;59.00;;;;;;2527965;54;20949;-67
2023/07/06 11:35:09;;;;;;;2.17;1.00;;;27.10;57.20;;;;;;2291905;55;20975;-68
2023/07/06 11:38:12;;;;;;;4.95;1.35;;;27.10;57.20;;;;;;2527838;54;20996;-69
2023/07/06 11:41:19;;;;;;;2.50;1.12;;;27.20;56.60;;;;;;2528050;54;20913;-68
2023/07/06 11:44:42;;;;;;;4.32;1.08;;;27.20;56.30;;;;;;2292221;55;21012;-68
2023/07/06 11:47:29;;;;;;;3.30;1.20;;;27.30;56.20;;;;;;2292552;55;20945;-68
2023/07/06 11:49:59;;;;;;;2.35;1.05;;;27.30;57.60;;;;;;2501152;54;20980;-67
2023/07/06 11:52:33;;;;;;;2.78;1.20;;;27.30;58.70;;;;;;2527398;54;20981;-67
2023/07/06 11:55:14;;;;;;;3.22;1.10;;;27.40;57.70;;;;;;2292477;55;21027;-67
2023/07/06 12:01:10;;;;;;;2.03;1.00;;;27.50;56.50;;;;;;2291837;55;21068;-67
2023/07/06 12:03:38;;;;;;;3.00;1.10;;;27.60;58.80;;;;;;2292713;55;20932;-67
2023/07/06 12:06:05;;;;;;;2.70;1.30;;;27.60;58.70;;;;;;2523056;54;20960;-68
2023/07/06 12:08:36;;;;;;;2.37;1.12;;;27.70;58.40;;;;;;2526780;54;20960;-67
2023/07/06 12:11:22;;;;;;;2.50;1.10;;;27.70;57.50;;;;;;2292370;55;20957;-67
2023/07/06 12:13:55;;;;;;;2.78;1.10;;;27.80;56.20;;;;;;2276384;55;21073;-67
2023/07/06 12:16:25;;;;;;;4.97;1.30;;;27.80;57.40;;;;;;2527114;54;21015;-67
2023/07/06 12:19:04;;;;;;;2.67;1.35;;;27.90;57.70;;;;;;2291882;55;21032;-67
2023/07/06 12:21:34;;;;;;;2.08;1.00;;;27.90;56.90;;;;;;2292316;55;20968;-67
2023/07/06 12:24:02;;;;;;;2.40;1.02;;;27.90;57.70;;;;;;2520552;54;21047;-67
2023/07/06 12:26:29;;;;;;;2.45;1.00;;;28.00;58.00;;;;;;2508317;54;22371;-68
2023/07/06 12:29:02;;;;;;;3.17;1.30;;;28.00;57.90;;;;;;2292882;56;20924;-69
2023/07/06 12:31:29;;;;;;;2.85;1.20;;;28.10;57.20;;;;;;2296392;54;21001;-68
2023/07/06 12:33:56;;;;;;;2.33;0.90;;;28.10;57.60;;;;;;2291716;55;21019;-67
2023/07/06 12:36:28;;;;;;;2.65;1.08;;;28.10;57.30;;;;;;2527684;54;21671;-68
2023/07/06 12:38:56;;;;;;;2.40;1.27;;;28.10;55.80;;;;;;2293154;55;20924;-68
2023/07/06 12:41:25;;;;;;;2.30;1.10;;;28.20;56.90;;;;;;2291468;55;21592;-68
2023/07/06 12:43:53;;;;;;;2.37;1.00;;;28.20;56.80;;;;;;2516813;54;21089;-68
2023/07/06 12:46:21;;;;;;;2.60;1.25;;;28.20;56.90;;;;;;2274484;55;20993;-69
2023/07/06 12:48:53;;;;;;;3.42;1.15;;;28.30;56.90;;;;;;2279636;55;21007;-68
2023/07/06 12:51:23;;;;;;;3.83;1.30;;;28.30;55.70;;;;;;2527266;54;20971;-68
2023/07/06 12:53:50;;;;;;;3.92;1.27;;;28.30;56.20;;;;;;2293081;56;20928;-69
2023/07/06 12:56:21;;;;;;;3.75;1.45;;;28.30;56.40;;;;;;2276274;55;20941;-68
2023/07/06 12:59:01;;;;;;;;;;;28.40;56.10;;;;;;2294628;55;20936;-70
2023/07/06 13:01:45;;;;;;;2.55;1.17;;;28.40;55.40;;;;;;2511362;54;20065;-67
2023/07/06 13:04:13;;;;;;;2.37;1.10;;;28.50;55.70;;;;;;2283779;55;21492;-68
2023/07/06 13:06:42;;;;;;;4.72;1.00;;;28.50;57.20;;;;;;2528134;54;21008;-69
2023/07/06 13:09:13;;;;;;;3.62;1.50;;;28.60;56.50;;;;;;2526565;54;20932;-69
2023/07/06 13:11:39;;;;;;;2.08;0.95;;;28.60;55.60;;;;;;2502483;54;21044;-67
2023/07/06 13:14:06;;;;;;;2.50;1.05;;;28.60;56.20;;;;;;2527253;54;21449;-68
2023/07/06 13:16:38;;;;;;;2.60;1.05;;;28.60;56.20;;;;;;2290707;55;21057;-70
2023/07/06 13:19:05;;;;;;;2.55;0.80;;;28.60;55.40;;;;;;2508587;54;21027;-67
2023/07/06 13:21:35;;;;;;;5.12;1.73;;;28.70;55.70;;;;;;2270616;55;20941;-67
2023/07/06 13:24:02;;;;;;;3.28;1.60;;;28.70;55.90;;;;;;2292683;55;21801;-70
2023/07/06 13:26:30;;;;;;;2.62;1.10;;;28.70;55.70;;;;;;2292166;55;21408;-69
2023/07/06 13:28:56;;;;;;;2.70;1.10;;;28.80;56.10;;;;;;2292285;55;20980;-70
2023/07/06 13:31:26;;;;;;;3.42;1.12;;;28.80;56.00;;;;;;2505666;54;21427;-67
2023/07/06 13:33:57;;;;;;;3.00;1.30;;;28.90;56.00;;;;;;2275350;55;21044;-67